sensor_id;sensor_type;location;lat;lon;timestamp;P1;durP1;ratioP1;P2;durP2;ratioP2
3036;SDS011;1528;52.550;13.408;2024-01-30T00:01:43;25.10;;;22.50;;
3036;SDS011;1528;52.550;13.408;2024-01-30T00:04:28;22.90;;;21.03;;
3036;SDS011;1528;52.550;13.408;2024-01-30T00:07:14;21.77;;;20.37;;
3036;SDS011;1528;52.550;13.408;2024-01-30T00:10:00;24.17;;;22.37;;
3036;SDS011;1528;52.550;13.408;2024-01-30T00:12:46;24.23;;;22.57;;
3036;SDS011;1528;52.550;13.408;2024-01-30T00:15:31;22.97;;;21.73;;
3036;SDS011;1528;52.550;13.408;2024-01-30T00:18:18;22.20;;;20.90;;
3036;SDS011;1528;52.550;13.408;2024-01-30T00:21:04;22.63;;;21.10;;
3036;SDS011;1528;52.550;13.408;2024-01-30T00:23:49;22.03;;;20.30;;
3036;SDS011;1528;52.550;13.408;2024-01-30T00:26:35;22.20;;;20.50;;
3036;SDS011;1528;52.550;13.408;2024-01-30T00:29:20;21.27;;;19.87;;
3036;SDS011;1528;52.550;13.408;2024-01-30T00:32:06;22.30;;;20.83;;
3036;SDS011;1528;52.550;13.408;2024-01-30T00:34:53;21.00;;;19.53;;
3036;SDS011;1528;52.550;13.408;2024-01-30T00:37:38;22.83;;;21.23;;
3036;SDS011;1528;52.550;13.408;2024-01-30T00:40:24;21.63;;;20.17;;
3036;SDS011;1528;52.550;13.408;2024-01-30T00:43:10;18.97;;;17.70;;
3036;SDS011;1528;52.550;13.408;2024-01-30T00:45:55;20.77;;;19.27;;
3036;SDS011;1528;52.550;13.408;2024-01-30T00:48:42;22.10;;;20.57;;
3036;SDS011;1528;52.550;13.408;2024-01-30T00:51:29;21.60;;;20.10;;
3036;SDS011;1528;52.550;13.408;2024-01-30T00:54:14;21.00;;;19.60;;
3036;SDS011;1528;52.550;13.408;2024-01-30T00:57:00;19.10;;;17.87;;
3036;SDS011;1528;52.550;13.408;2024-01-30T00:59:45;17.60;;;16.50;;
3036;SDS011;1528;52.550;13.408;2024-01-30T01:02:31;20.90;;;19.43;;
3036;SDS011;1528;52.550;13.408;2024-01-30T01:05:17;19.67;;;18.17;;
3036;SDS011;1528;52.550;13.408;2024-01-30T01:08:04;20.50;;;19.30;;
3036;SDS011;1528;52.550;13.408;2024-01-30T01:10:49;19.93;;;18.50;;
3036;SDS011;1528;52.550;13.408;2024-01-30T01:13:35;20.83;;;19.43;;
3036;SDS011;1528;52.550;13.408;2024-01-30T01:16:21;18.23;;;17.03;;
3036;SDS011;1528;52.550;13.408;2024-01-30T01:19:07;22.63;;;21.00;;
3036;SDS011;1528;52.550;13.408;2024-01-30T01:21:52;22.53;;;20.87;;
3036;SDS011;1528;52.550;13.408;2024-01-30T01:24:39;23.90;;;22.50;;
3036;SDS011;1528;52.550;13.408;2024-01-30T01:27:25;24.27;;;22.67;;
3036;SDS011;1528;52.550;13.408;2024-01-30T01:30:10;21.63;;;20.10;;
3036;SDS011;1528;52.550;13.408;2024-01-30T01:33:02;23.13;;;21.63;;
3036;SDS011;1528;52.550;13.408;2024-01-30T01:35:47;22.80;;;21.40;;
3036;SDS011;1528;52.550;13.408;2024-01-30T01:38:34;21.77;;;20.37;;
3036;SDS011;1528;52.550;13.408;2024-01-30T01:41:21;22.63;;;21.23;;
3036;SDS011;1528;52.550;13.408;2024-01-30T01:44:06;24.03;;;22.47;;
3036;SDS011;1528;52.550;13.408;2024-01-30T01:46:52;23.50;;;22.00;;
3036;SDS011;1528;52.550;13.408;2024-01-30T01:49:39;26.90;;;25.30;;
3036;SDS011;1528;52.550;13.408;2024-01-30T01:52:25;23.57;;;21.87;;
3036;SDS011;1528;52.550;13.408;2024-01-30T01:55:11;23.43;;;21.73;;
3036;SDS011;1528;52.550;13.408;2024-01-30T01:57:58;25.03;;;23.50;;
3036;SDS011;1528;52.550;13.408;2024-01-30T02:00:44;22.67;;;20.87;;
3036;SDS011;1528;52.550;13.408;2024-01-30T02:03:30;24.23;;;22.83;;
3036;SDS011;1528;52.550;13.408;2024-01-30T02:06:15;23.00;;;21.57;;
3036;SDS011;1528;52.550;13.408;2024-01-30T02:09:02;21.33;;;19.93;;
3036;SDS011;1528;52.550;13.408;2024-01-30T02:11:48;23.07;;;21.57;;
3036;SDS011;1528;52.550;13.408;2024-01-30T02:14:43;20.67;;;19.20;;
3036;SDS011;1528;52.550;13.408;2024-01-30T02:17:29;19.30;;;18.10;;
3036;SDS011;1528;52.550;13.408;2024-01-30T02:20:15;22.63;;;21.17;;
3036;SDS011;1528;52.550;13.408;2024-01-30T02:23:02;20.33;;;18.83;;
3036;SDS011;1528;52.550;13.408;2024-01-30T02:25:47;21.57;;;20.27;;
3036;SDS011;1528;52.550;13.408;2024-01-30T02:28:33;22.47;;;21.17;;
3036;SDS011;1528;52.550;13.408;2024-01-30T02:31:18;23.27;;;21.73;;
3036;SDS011;1528;52.550;13.408;2024-01-30T02:34:04;24.30;;;23.00;;
3036;SDS011;1528;52.550;13.408;2024-01-30T02:36:50;19.57;;;18.27;;
3036;SDS011;1528;52.550;13.408;2024-01-30T02:39:37;21.50;;;20.10;;
3036;SDS011;1528;52.550;13.408;2024-01-30T02:42:22;20.50;;;18.87;;
3036;SDS011;1528;52.550;13.408;2024-01-30T02:45:09;19.13;;;17.97;;
3036;SDS011;1528;52.550;13.408;2024-01-30T02:47:55;19.00;;;17.60;;
3036;SDS011;1528;52.550;13.408;2024-01-30T02:50:40;19.63;;;18.13;;
3036;SDS011;1528;52.550;13.408;2024-01-30T02:53:26;19.03;;;17.73;;
3036;SDS011;1528;52.550;13.408;2024-01-30T02:56:13;22.20;;;20.73;;
3036;SDS011;1528;52.550;13.408;2024-01-30T02:59:00;17.97;;;16.87;;
3036;SDS011;1528;52.550;13.408;2024-01-30T03:01:45;18.30;;;17.07;;
3036;SDS011;1528;52.550;13.408;2024-01-30T03:04:31;18.30;;;16.97;;
3036;SDS011;1528;52.550;13.408;2024-01-30T03:07:17;19.73;;;18.33;;
3036;SDS011;1528;52.550;13.408;2024-01-30T03:10:03;18.47;;;17.37;;
3036;SDS011;1528;52.550;13.408;2024-01-30T03:12:52;19.37;;;18.07;;
3036;SDS011;1528;52.550;13.408;2024-01-30T03:15:37;19.90;;;18.70;;
3036;SDS011;1528;52.550;13.408;2024-01-30T03:18:23;21.53;;;20.13;;
3036;SDS011;1528;52.550;13.408;2024-01-30T03:21:08;21.77;;;20.40;;
3036;SDS011;1528;52.550;13.408;2024-01-30T03:23:54;21.47;;;20.00;;
3036;SDS011;1528;52.550;13.408;2024-01-30T03:26:40;20.00;;;18.80;;
3036;SDS011;1528;52.550;13.408;2024-01-30T03:29:26;24.47;;;23.07;;
3036;SDS011;1528;52.550;13.408;2024-01-30T03:32:12;21.90;;;20.40;;
3036;SDS011;1528;52.550;13.408;2024-01-30T03:34:58;21.30;;;19.67;;
3036;SDS011;1528;52.550;13.408;2024-01-30T03:37:43;25.50;;;23.50;;
3036;SDS011;1528;52.550;13.408;2024-01-30T03:40:29;23.40;;;22.00;;
3036;SDS011;1528;52.550;13.408;2024-01-30T03:43:14;29.73;;;27.80;;
3036;SDS011;1528;52.550;13.408;2024-01-30T03:46:02;25.40;;;23.73;;
3036;SDS011;1528;52.550;13.408;2024-01-30T03:48:47;24.43;;;22.93;;
3036;SDS011;1528;52.550;13.408;2024-01-30T03:51:33;22.87;;;21.37;;
3036;SDS011;1528;52.550;13.408;2024-01-30T03:54:19;23.47;;;21.87;;
3036;SDS011;1528;52.550;13.408;2024-01-30T03:57:05;27.17;;;25.37;;
3036;SDS011;1528;52.550;13.408;2024-01-30T03:59:50;22.77;;;21.40;;
3036;SDS011;1528;52.550;13.408;2024-01-30T04:02:38;23.40;;;21.90;;
3036;SDS011;1528;52.550;13.408;2024-01-30T04:05:24;25.10;;;23.60;;
3036;SDS011;1528;52.550;13.408;2024-01-30T04:08:10;23.00;;;21.47;;
3036;SDS011;1528;52.550;13.408;2024-01-30T04:10:55;20.10;;;18.70;;
3036;SDS011;1528;52.550;13.408;2024-01-30T04:13:41;23.27;;;21.80;;
3036;SDS011;1528;52.550;13.408;2024-01-30T04:16:27;20.90;;;19.47;;
3036;SDS011;1528;52.550;13.408;2024-01-30T04:19:14;24.47;;;22.87;;
3036;SDS011;1528;52.550;13.408;2024-01-30T04:21:59;24.73;;;23.07;;
3036;SDS011;1528;52.550;13.408;2024-01-30T04:24:45;19.87;;;18.57;;
3036;SDS011;1528;52.550;13.408;2024-01-30T04:27:31;21.23;;;19.93;;
3036;SDS011;1528;52.550;13.408;2024-01-30T04:30:16;20.70;;;19.40;;
3036;SDS011;1528;52.550;13.408;2024-01-30T04:33:02;23.27;;;21.83;;
3036;SDS011;1528;52.550;13.408;2024-01-30T04:35:49;19.70;;;18.50;;
3036;SDS011;1528;52.550;13.408;2024-01-30T04:38:35;20.60;;;19.20;;
3036;SDS011;1528;52.550;13.408;2024-01-30T04:41:21;19.13;;;17.67;;
3036;SDS011;1528;52.550;13.408;2024-01-30T04:44:06;19.43;;;18.30;;
3036;SDS011;1528;52.550;13.408;2024-01-30T04:46:52;21.87;;;20.47;;
3036;SDS011;1528;52.550;13.408;2024-01-30T04:49:38;19.03;;;17.43;;
3036;SDS011;1528;52.550;13.408;2024-01-30T04:52:25;22.20;;;20.87;;
3036;SDS011;1528;52.550;13.408;2024-01-30T04:55:11;22.03;;;20.73;;
3036;SDS011;1528;52.550;13.408;2024-01-30T04:57:57;21.67;;;20.13;;
3036;SDS011;1528;52.550;13.408;2024-01-30T05:00:42;20.80;;;19.53;;
3036;SDS011;1528;52.550;13.408;2024-01-30T05:03:32;21.10;;;19.70;;
3036;SDS011;1528;52.550;13.408;2024-01-30T05:06:23;20.47;;;19.20;;
3036;SDS011;1528;52.550;13.408;2024-01-30T05:09:11;22.40;;;20.83;;
3036;SDS011;1528;52.550;13.408;2024-01-30T05:11:57;21.40;;;19.90;;
3036;SDS011;1528;52.550;13.408;2024-01-30T05:14:42;19.60;;;18.37;;
3036;SDS011;1528;52.550;13.408;2024-01-30T05:17:28;21.17;;;19.97;;
3036;SDS011;1528;52.550;13.408;2024-01-30T05:20:13;23.13;;;21.80;;
3036;SDS011;1528;52.550;13.408;2024-01-30T05:22:59;20.43;;;19.13;;
3036;SDS011;1528;52.550;13.408;2024-01-30T05:25:46;26.57;;;25.03;;
3036;SDS011;1528;52.550;13.408;2024-01-30T05:28:31;21.87;;;20.13;;
3036;SDS011;1528;52.550;13.408;2024-01-30T05:31:17;22.03;;;20.57;;
3036;SDS011;1528;52.550;13.408;2024-01-30T05:34:03;22.70;;;21.43;;
3036;SDS011;1528;52.550;13.408;2024-01-30T05:36:50;21.87;;;20.17;;
3036;SDS011;1528;52.550;13.408;2024-01-30T05:39:36;20.40;;;18.80;;
3036;SDS011;1528;52.550;13.408;2024-01-30T05:42:22;21.20;;;20.00;;
3036;SDS011;1528;52.550;13.408;2024-01-30T05:45:08;22.07;;;20.37;;
3036;SDS011;1528;52.550;13.408;2024-01-30T05:47:54;21.27;;;19.83;;
3036;SDS011;1528;52.550;13.408;2024-01-30T05:50:39;20.47;;;19.07;;
3036;SDS011;1528;52.550;13.408;2024-01-30T05:53:25;21.60;;;19.73;;
3036;SDS011;1528;52.550;13.408;2024-01-30T05:56:11;22.60;;;20.90;;
3036;SDS011;1528;52.550;13.408;2024-01-30T05:58:58;20.67;;;19.37;;
3036;SDS011;1528;52.550;13.408;2024-01-30T06:01:45;20.97;;;19.47;;
3036;SDS011;1528;52.550;13.408;2024-01-30T06:04:31;20.47;;;19.10;;
3036;SDS011;1528;52.550;13.408;2024-01-30T06:07:17;19.27;;;17.77;;
3036;SDS011;1528;52.550;13.408;2024-01-30T06:10:02;21.60;;;20.27;;
3036;SDS011;1528;52.550;13.408;2024-01-30T06:12:49;21.27;;;19.90;;
3036;SDS011;1528;52.550;13.408;2024-01-30T06:15:35;22.90;;;21.43;;
3036;SDS011;1528;52.550;13.408;2024-01-30T06:18:21;23.37;;;21.97;;
3036;SDS011;1528;52.550;13.408;2024-01-30T06:21:07;21.67;;;20.27;;
3036;SDS011;1528;52.550;13.408;2024-01-30T06:23:52;20.57;;;19.07;;
3036;SDS011;1528;52.550;13.408;2024-01-30T06:26:38;22.07;;;20.60;;
3036;SDS011;1528;52.550;13.408;2024-01-30T06:29:24;20.80;;;19.50;;
3036;SDS011;1528;52.550;13.408;2024-01-30T06:32:12;22.77;;;21.23;;
3036;SDS011;1528;52.550;13.408;2024-01-30T06:34:57;22.80;;;21.20;;
3036;SDS011;1528;52.550;13.408;2024-01-30T06:37:43;22.57;;;20.77;;
3036;SDS011;1528;52.550;13.408;2024-01-30T06:40:28;22.70;;;21.20;;
3036;SDS011;1528;52.550;13.408;2024-01-30T06:43:14;19.80;;;18.50;;
3036;SDS011;1528;52.550;13.408;2024-01-30T06:45:59;27.43;;;25.63;;
3036;SDS011;1528;52.550;13.408;2024-01-30T06:48:46;25.23;;;23.63;;
3036;SDS011;1528;52.550;13.408;2024-01-30T06:51:32;25.17;;;23.70;;
3036;SDS011;1528;52.550;13.408;2024-01-30T06:54:17;29.13;;;27.03;;
3036;SDS011;1528;52.550;13.408;2024-01-30T06:57:03;28.47;;;26.77;;
3036;SDS011;1528;52.550;13.408;2024-01-30T06:59:52;26.40;;;24.90;;
3036;SDS011;1528;52.550;13.408;2024-01-30T07:02:39;30.17;;;28.13;;
3036;SDS011;1528;52.550;13.408;2024-01-30T07:05:26;31.27;;;29.07;;
3036;SDS011;1528;52.550;13.408;2024-01-30T07:08:12;28.33;;;26.20;;
3036;SDS011;1528;52.550;13.408;2024-01-30T07:10:58;29.70;;;27.77;;
3036;SDS011;1528;52.550;13.408;2024-01-30T07:13:43;30.20;;;28.07;;
3036;SDS011;1528;52.550;13.408;2024-01-30T07:16:29;25.87;;;24.00;;
3036;SDS011;1528;52.550;13.408;2024-01-30T07:19:15;31.47;;;29.07;;
3036;SDS011;1528;52.550;13.408;2024-01-30T07:22:02;29.93;;;27.80;;
3036;SDS011;1528;52.550;13.408;2024-01-30T07:24:48;27.00;;;24.87;;
3036;SDS011;1528;52.550;13.408;2024-01-30T07:27:35;26.07;;;24.07;;
3036;SDS011;1528;52.550;13.408;2024-01-30T07:30:21;27.57;;;25.77;;
3036;SDS011;1528;52.550;13.408;2024-01-30T07:33:07;25.10;;;23.30;;
3036;SDS011;1528;52.550;13.408;2024-01-30T07:35:52;25.43;;;23.53;;
3036;SDS011;1528;52.550;13.408;2024-01-30T07:38:40;22.33;;;20.80;;
3036;SDS011;1528;52.550;13.408;2024-01-30T07:41:25;22.80;;;21.40;;
3036;SDS011;1528;52.550;13.408;2024-01-30T07:44:11;23.00;;;21.17;;
3036;SDS011;1528;52.550;13.408;2024-01-30T07:46:56;23.70;;;22.00;;
3036;SDS011;1528;52.550;13.408;2024-01-30T07:49:43;25.50;;;23.50;;
3036;SDS011;1528;52.550;13.408;2024-01-30T07:52:29;24.73;;;22.63;;
3036;SDS011;1528;52.550;13.408;2024-01-30T07:55:16;22.87;;;21.00;;
3036;SDS011;1528;52.550;13.408;2024-01-30T08:01:44;24.17;;;22.50;;
3036;SDS011;1528;52.550;13.408;2024-01-30T08:04:29;24.93;;;23.20;;
3036;SDS011;1528;52.550;13.408;2024-01-30T08:07:15;24.70;;;22.83;;
3036;SDS011;1528;52.550;13.408;2024-01-30T08:10:01;21.57;;;20.13;;
3036;SDS011;1528;52.550;13.408;2024-01-30T08:12:48;25.37;;;23.57;;
3036;SDS011;1528;52.550;13.408;2024-01-30T08:15:34;25.73;;;24.03;;
3036;SDS011;1528;52.550;13.408;2024-01-30T08:18:19;26.80;;;25.03;;
3036;SDS011;1528;52.550;13.408;2024-01-30T08:21:05;24.37;;;22.87;;
3036;SDS011;1528;52.550;13.408;2024-01-30T08:23:50;29.57;;;27.57;;
3036;SDS011;1528;52.550;13.408;2024-01-30T08:26:36;25.27;;;23.57;;
3036;SDS011;1528;52.550;13.408;2024-01-30T08:29:23;24.27;;;22.53;;
3036;SDS011;1528;52.550;13.408;2024-01-30T08:32:09;24.63;;;23.13;;
3036;SDS011;1528;52.550;13.408;2024-01-30T08:34:54;26.50;;;24.73;;
3036;SDS011;1528;52.550;13.408;2024-01-30T08:37:40;24.93;;;23.23;;
3036;SDS011;1528;52.550;13.408;2024-01-30T08:40:25;24.23;;;22.73;;
3036;SDS011;1528;52.550;13.408;2024-01-30T08:43:11;24.90;;;23.13;;
3036;SDS011;1528;52.550;13.408;2024-01-30T08:45:59;30.97;;;28.97;;
3036;SDS011;1528;52.550;13.408;2024-01-30T08:48:45;26.40;;;24.70;;
3036;SDS011;1528;52.550;13.408;2024-01-30T08:51:31;22.17;;;20.83;;
3036;SDS011;1528;52.550;13.408;2024-01-30T08:54:18;21.53;;;20.10;;
3036;SDS011;1528;52.550;13.408;2024-01-30T08:57:04;22.50;;;21.10;;
3036;SDS011;1528;52.550;13.408;2024-01-30T08:59:49;21.13;;;19.67;;
3036;SDS011;1528;52.550;13.408;2024-01-30T09:02:36;24.27;;;22.87;;
3036;SDS011;1528;52.550;13.408;2024-01-30T09:05:22;22.80;;;21.30;;
3036;SDS011;1528;52.550;13.408;2024-01-30T09:08:07;23.07;;;21.53;;
3036;SDS011;1528;52.550;13.408;2024-01-30T09:10:53;21.97;;;20.57;;
3036;SDS011;1528;52.550;13.408;2024-01-30T09:13:40;22.57;;;21.20;;
3036;SDS011;1528;52.550;13.408;2024-01-30T09:16:26;24.07;;;22.50;;
3036;SDS011;1528;52.550;13.408;2024-01-30T09:19:13;25.53;;;23.93;;
3036;SDS011;1528;52.550;13.408;2024-01-30T09:21:59;23.10;;;21.53;;
3036;SDS011;1528;52.550;13.408;2024-01-30T09:24:45;24.60;;;23.00;;
3036;SDS011;1528;52.550;13.408;2024-01-30T09:27:30;27.10;;;25.20;;
3036;SDS011;1528;52.550;13.408;2024-01-30T09:30:16;24.40;;;22.90;;
3036;SDS011;1528;52.550;13.408;2024-01-30T09:33:02;26.40;;;24.80;;
3036;SDS011;1528;52.550;13.408;2024-01-30T09:35:49;26.33;;;24.70;;
3036;SDS011;1528;52.550;13.408;2024-01-30T09:38:35;22.67;;;20.97;;
3036;SDS011;1528;52.550;13.408;2024-01-30T09:41:21;24.23;;;22.63;;
3036;SDS011;1528;52.550;13.408;2024-01-30T09:44:09;28.60;;;26.70;;
3036;SDS011;1528;52.550;13.408;2024-01-30T09:46:59;26.33;;;24.50;;
3036;SDS011;1528;52.550;13.408;2024-01-30T09:49:47;26.23;;;24.47;;
3036;SDS011;1528;52.550;13.408;2024-01-30T09:52:35;22.70;;;21.20;;
3036;SDS011;1528;52.550;13.408;2024-01-30T09:55:21;23.97;;;22.43;;
3036;SDS011;1528;52.550;13.408;2024-01-30T09:58:07;26.00;;;24.20;;
3036;SDS011;1528;52.550;13.408;2024-01-30T10:00:53;26.60;;;24.90;;
3036;SDS011;1528;52.550;13.408;2024-01-30T10:03:38;26.23;;;24.73;;
3036;SDS011;1528;52.550;13.408;2024-01-30T10:06:24;28.57;;;26.43;;
3036;SDS011;1528;52.550;13.408;2024-01-30T10:09:11;28.23;;;26.63;;
3036;SDS011;1528;52.550;13.408;2024-01-30T10:11:57;27.60;;;25.70;;
3036;SDS011;1528;52.550;13.408;2024-01-30T10:14:43;26.13;;;24.37;;
3036;SDS011;1528;52.550;13.408;2024-01-30T10:17:28;26.67;;;24.80;;
3036;SDS011;1528;52.550;13.408;2024-01-30T10:20:14;25.57;;;24.20;;
3036;SDS011;1528;52.550;13.408;2024-01-30T10:23:01;26.17;;;24.40;;
3036;SDS011;1528;52.550;13.408;2024-01-30T10:25:49;25.27;;;23.70;;
3036;SDS011;1528;52.550;13.408;2024-01-30T10:28:36;26.23;;;24.53;;
3036;SDS011;1528;52.550;13.408;2024-01-30T10:31:21;24.23;;;22.40;;
3036;SDS011;1528;52.550;13.408;2024-01-30T10:34:07;25.43;;;23.93;;
3036;SDS011;1528;52.550;13.408;2024-01-30T10:36:56;21.97;;;20.57;;
3036;SDS011;1528;52.550;13.408;2024-01-30T10:39:45;21.93;;;20.43;;
3036;SDS011;1528;52.550;13.408;2024-01-30T10:42:32;23.93;;;22.53;;
3036;SDS011;1528;52.550;13.408;2024-01-30T10:45:21;24.77;;;23.37;;
3036;SDS011;1528;52.550;13.408;2024-01-30T10:48:08;25.10;;;23.80;;
3036;SDS011;1528;52.550;13.408;2024-01-30T10:50:56;22.57;;;21.17;;
3036;SDS011;1528;52.550;13.408;2024-01-30T10:53:44;23.97;;;22.47;;
3036;SDS011;1528;52.550;13.408;2024-01-30T10:56:32;27.03;;;25.43;;
3036;SDS011;1528;52.550;13.408;2024-01-30T10:59:21;26.97;;;25.57;;
3036;SDS011;1528;52.550;13.408;2024-01-30T11:02:09;23.80;;;22.07;;
3036;SDS011;1528;52.550;13.408;2024-01-30T11:04:56;22.67;;;21.23;;
3036;SDS011;1528;52.550;13.408;2024-01-30T11:07:43;21.10;;;20.00;;
3036;SDS011;1528;52.550;13.408;2024-01-30T11:10:28;24.13;;;21.97;;
3036;SDS011;1528;52.550;13.408;2024-01-30T11:13:15;22.87;;;21.27;;
3036;SDS011;1528;52.550;13.408;2024-01-30T11:16:02;24.40;;;22.80;;
3036;SDS011;1528;52.550;13.408;2024-01-30T11:18:50;23.70;;;22.33;;
3036;SDS011;1528;52.550;13.408;2024-01-30T11:21:40;22.60;;;21.23;;
3036;SDS011;1528;52.550;13.408;2024-01-30T11:24:27;21.70;;;20.33;;
3036;SDS011;1528;52.550;13.408;2024-01-30T11:27:12;24.73;;;23.50;;
3036;SDS011;1528;52.550;13.408;2024-01-30T11:30:01;22.57;;;21.20;;
3036;SDS011;1528;52.550;13.408;2024-01-30T11:32:59;23.77;;;22.17;;
3036;SDS011;1528;52.550;13.408;2024-01-30T11:35:45;25.40;;;23.73;;
3036;SDS011;1528;52.550;13.408;2024-01-30T11:38:31;25.80;;;24.30;;
3036;SDS011;1528;52.550;13.408;2024-01-30T11:41:17;29.03;;;27.43;;
3036;SDS011;1528;52.550;13.408;2024-01-30T11:44:03;26.13;;;24.70;;
3036;SDS011;1528;52.550;13.408;2024-01-30T11:46:49;25.30;;;23.80;;
3036;SDS011;1528;52.550;13.408;2024-01-30T11:49:37;23.77;;;22.20;;
3036;SDS011;1528;52.550;13.408;2024-01-30T11:52:23;26.37;;;24.77;;
3036;SDS011;1528;52.550;13.408;2024-01-30T11:55:09;23.30;;;21.90;;
3036;SDS011;1528;52.550;13.408;2024-01-30T11:57:55;25.40;;;23.97;;
3036;SDS011;1528;52.550;13.408;2024-01-30T12:00:40;25.97;;;24.17;;
3036;SDS011;1528;52.550;13.408;2024-01-30T12:03:26;24.77;;;23.33;;
3036;SDS011;1528;52.550;13.408;2024-01-30T12:06:13;24.03;;;22.70;;
3036;SDS011;1528;52.550;13.408;2024-01-30T12:09:01;23.17;;;21.87;;
3036;SDS011;1528;52.550;13.408;2024-01-30T12:11:48;24.60;;;23.20;;
3036;SDS011;1528;52.550;13.408;2024-01-30T12:14:34;24.57;;;22.40;;
3036;SDS011;1528;52.550;13.408;2024-01-30T12:17:24;22.90;;;21.40;;
3036;SDS011;1528;52.550;13.408;2024-01-30T12:20:12;25.37;;;23.87;;
3036;SDS011;1528;52.550;13.408;2024-01-30T12:23:00;26.00;;;24.53;;
3036;SDS011;1528;52.550;13.408;2024-01-30T12:25:46;23.63;;;22.30;;
3036;SDS011;1528;52.550;13.408;2024-01-30T12:28:31;21.87;;;19.97;;
3036;SDS011;1528;52.550;13.408;2024-01-30T12:31:17;24.33;;;22.93;;
3036;SDS011;1528;52.550;13.408;2024-01-30T12:34:03;23.87;;;22.50;;
3036;SDS011;1528;52.550;13.408;2024-01-30T12:36:48;24.83;;;23.43;;
3036;SDS011;1528;52.550;13.408;2024-01-30T12:39:35;22.53;;;21.17;;
3036;SDS011;1528;52.550;13.408;2024-01-30T12:42:21;23.37;;;22.03;;
3036;SDS011;1528;52.550;13.408;2024-01-30T12:45:07;21.97;;;20.57;;
3036;SDS011;1528;52.550;13.408;2024-01-30T12:47:53;24.47;;;23.03;;
3036;SDS011;1528;52.550;13.408;2024-01-30T12:50:38;25.17;;;23.80;;
3036;SDS011;1528;52.550;13.408;2024-01-30T12:53:24;27.57;;;25.87;;
3036;SDS011;1528;52.550;13.408;2024-01-30T12:56:11;25.93;;;24.53;;
3036;SDS011;1528;52.550;13.408;2024-01-30T12:58:57;24.30;;;22.90;;
3036;SDS011;1528;52.550;13.408;2024-01-30T13:01:42;24.00;;;22.50;;
3036;SDS011;1528;52.550;13.408;2024-01-30T13:04:28;25.80;;;24.30;;
3036;SDS011;1528;52.550;13.408;2024-01-30T13:07:13;27.53;;;25.73;;
3036;SDS011;1528;52.550;13.408;2024-01-30T13:09:59;27.90;;;26.30;;
3036;SDS011;1528;52.550;13.408;2024-01-30T13:12:48;26.73;;;25.20;;
3036;SDS011;1528;52.550;13.408;2024-01-30T13:15:33;27.33;;;25.33;;
3036;SDS011;1528;52.550;13.408;2024-01-30T13:18:19;27.50;;;25.77;;
3036;SDS011;1528;52.550;13.408;2024-01-30T13:21:04;25.67;;;23.97;;
3036;SDS011;1528;52.550;13.408;2024-01-30T13:23:51;28.87;;;27.33;;
3036;SDS011;1528;52.550;13.408;2024-01-30T13:26:38;27.57;;;25.93;;
3036;SDS011;1528;52.550;13.408;2024-01-30T13:29:25;25.60;;;23.67;;
3036;SDS011;1528;52.550;13.408;2024-01-30T13:32:10;26.50;;;24.80;;
3036;SDS011;1528;52.550;13.408;2024-01-30T13:34:56;26.33;;;24.73;;
3036;SDS011;1528;52.550;13.408;2024-01-30T13:37:42;25.67;;;23.73;;
3036;SDS011;1528;52.550;13.408;2024-01-30T13:40:27;21.83;;;20.43;;
3036;SDS011;1528;52.550;13.408;2024-01-30T13:43:13;23.23;;;21.93;;
3036;SDS011;1528;52.550;13.408;2024-01-30T13:46:01;23.50;;;21.90;;
3036;SDS011;1528;52.550;13.408;2024-01-30T13:48:47;24.90;;;23.30;;
3036;SDS011;1528;52.550;13.408;2024-01-30T13:51:32;21.83;;;20.53;;
3036;SDS011;1528;52.550;13.408;2024-01-30T13:54:18;24.03;;;22.53;;
3036;SDS011;1528;52.550;13.408;2024-01-30T13:57:04;23.97;;;22.47;;
3036;SDS011;1528;52.550;13.408;2024-01-30T13:59:50;22.13;;;20.80;;
3036;SDS011;1528;52.550;13.408;2024-01-30T14:02:37;24.57;;;22.97;;
3036;SDS011;1528;52.550;13.408;2024-01-30T14:05:23;21.93;;;20.43;;
3036;SDS011;1528;52.550;13.408;2024-01-30T14:08:09;21.83;;;20.23;;
3036;SDS011;1528;52.550;13.408;2024-01-30T14:10:54;24.37;;;22.60;;
3036;SDS011;1528;52.550;13.408;2024-01-30T14:13:40;23.97;;;22.23;;
3036;SDS011;1528;52.550;13.408;2024-01-30T14:16:25;24.83;;;23.33;;
3036;SDS011;1528;52.550;13.408;2024-01-30T14:19:13;24.37;;;23.10;;
3036;SDS011;1528;52.550;13.408;2024-01-30T14:21:59;26.10;;;24.47;;
3036;SDS011;1528;52.550;13.408;2024-01-30T14:24:44;23.90;;;22.47;;
3036;SDS011;1528;52.550;13.408;2024-01-30T14:27:30;25.63;;;24.23;;
3036;SDS011;1528;52.550;13.408;2024-01-30T14:30:16;25.53;;;24.13;;
3036;SDS011;1528;52.550;13.408;2024-01-30T14:33:02;26.17;;;24.60;;
3036;SDS011;1528;52.550;13.408;2024-01-30T14:35:49;28.13;;;26.13;;
3036;SDS011;1528;52.550;13.408;2024-01-30T14:38:35;26.03;;;24.43;;
3036;SDS011;1528;52.550;13.408;2024-01-30T14:41:21;26.87;;;25.17;;
3036;SDS011;1528;52.550;13.408;2024-01-30T14:44:07;26.17;;;24.40;;
3036;SDS011;1528;52.550;13.408;2024-01-30T14:46:53;24.27;;;22.70;;
3036;SDS011;1528;52.550;13.408;2024-01-30T14:49:38;25.20;;;23.70;;
3036;SDS011;1528;52.550;13.408;2024-01-30T14:52:25;24.87;;;23.37;;
3036;SDS011;1528;52.550;13.408;2024-01-30T14:55:11;24.03;;;21.97;;
3036;SDS011;1528;52.550;13.408;2024-01-30T14:57:56;21.10;;;19.80;;
3036;SDS011;1528;52.550;13.408;2024-01-30T15:03:23;27.17;;;25.30;;
3036;SDS011;1528;52.550;13.408;2024-01-30T15:06:09;22.23;;;20.70;;
3036;SDS011;1528;52.550;13.408;2024-01-30T15:08:56;22.07;;;20.67;;
3036;SDS011;1528;52.550;13.408;2024-01-30T15:11:41;22.87;;;21.40;;
3036;SDS011;1528;52.550;13.408;2024-01-30T15:14:28;22.53;;;21.13;;
3036;SDS011;1528;52.550;13.408;2024-01-30T15:17:14;24.07;;;22.37;;
3036;SDS011;1528;52.550;13.408;2024-01-30T15:20:00;21.10;;;19.60;;
3036;SDS011;1528;52.550;13.408;2024-01-30T15:22:47;25.10;;;23.53;;
3036;SDS011;1528;52.550;13.408;2024-01-30T15:25:34;20.90;;;19.60;;
3036;SDS011;1528;52.550;13.408;2024-01-30T15:28:22;21.53;;;19.97;;
3036;SDS011;1528;52.550;13.408;2024-01-30T15:31:19;22.87;;;21.47;;
3036;SDS011;1528;52.550;13.408;2024-01-30T15:34:04;19.77;;;18.47;;
3036;SDS011;1528;52.550;13.408;2024-01-30T15:36:50;22.63;;;21.23;;
3036;SDS011;1528;52.550;13.408;2024-01-30T15:39:36;22.10;;;20.43;;
3036;SDS011;1528;52.550;13.408;2024-01-30T15:42:22;23.53;;;21.77;;
3036;SDS011;1528;52.550;13.408;2024-01-30T15:45:08;24.20;;;22.70;;
3036;SDS011;1528;52.550;13.408;2024-01-30T15:47:53;25.00;;;21.93;;
3036;SDS011;1528;52.550;13.408;2024-01-30T15:50:39;22.20;;;20.90;;
3036;SDS011;1528;52.550;13.408;2024-01-30T15:53:25;23.77;;;22.20;;
3036;SDS011;1528;52.550;13.408;2024-01-30T15:56:11;24.53;;;23.03;;
3036;SDS011;1528;52.550;13.408;2024-01-30T15:58:58;26.10;;;24.60;;
3036;SDS011;1528;52.550;13.408;2024-01-30T16:01:45;25.07;;;23.47;;
3036;SDS011;1528;52.550;13.408;2024-01-30T16:04:32;21.30;;;19.80;;
3036;SDS011;1528;52.550;13.408;2024-01-30T16:07:18;20.87;;;19.57;;
3036;SDS011;1528;52.550;13.408;2024-01-30T16:10:04;22.37;;;20.97;;
3036;SDS011;1528;52.550;13.408;2024-01-30T16:12:50;22.37;;;20.83;;
3036;SDS011;1528;52.550;13.408;2024-01-30T16:15:37;24.67;;;23.00;;
3036;SDS011;1528;52.550;13.408;2024-01-30T16:18:23;22.90;;;21.30;;
3036;SDS011;1528;52.550;13.408;2024-01-30T16:21:10;24.97;;;23.47;;
3036;SDS011;1528;52.550;13.408;2024-01-30T16:23:57;30.07;;;27.87;;
3036;SDS011;1528;52.550;13.408;2024-01-30T16:26:43;24.40;;;22.70;;
3036;SDS011;1528;52.550;13.408;2024-01-30T16:29:28;22.23;;;21.07;;
3036;SDS011;1528;52.550;13.408;2024-01-30T16:32:16;24.23;;;22.40;;